createdAt,value
2019-02-11T00:00:51.627Z,97490.33
2019-02-11T00:03:19.748Z,97507.67
2019-02-11T00:05:47.692Z,97509.14
2019-02-11T00:08:16.187Z,97519.62
2019-02-11T00:10:44.175Z,97507.08
2019-02-11T00:13:12.215Z,97526.33
2019-02-11T00:15:40.334Z,97512.31
2019-02-11T00:18:08.431Z,97517.05
2019-02-11T00:20:36.407Z,97534.96
2019-02-11T00:23:04.431Z,97509.95
2019-02-11T00:25:32.452Z,97527.16
2019-02-11T00:28:00.552Z,97530.99
2019-02-11T00:30:28.614Z,97530.06
2019-02-11T00:32:56.749Z,97525.45
2019-02-11T00:35:25.676Z,97515.77
2019-02-11T00:37:53.697Z,97502.66
2019-02-11T00:40:21.755Z,97501.13
2019-02-11T00:42:49.757Z,97520.55
2019-02-11T00:45:17.740Z,97498.31
2019-02-11T00:47:45.830Z,97501.42
2019-02-11T00:50:14.151Z,97510.42
2019-02-11T00:52:42.742Z,97509.59
2019-02-11T00:55:11.013Z,97511.81
2019-02-11T00:57:39.086Z,97510.72
2019-02-11T01:00:10.102Z,97524.81
2019-02-11T01:02:38.228Z,97513.16
2019-02-11T01:05:06.376Z,97506.70
2019-02-11T01:07:34.390Z,97514.73
2019-02-11T01:10:02.529Z,97517.91
2019-02-11T01:12:30.677Z,97511.98
2019-02-11T01:14:58.969Z,97525.82
2019-02-11T01:17:27.291Z,97529.27
2019-02-11T01:19:55.298Z,97533.20
2019-02-11T01:22:23.617Z,97543.28
2019-02-11T01:24:51.594Z,97554.49
2019-02-11T01:27:19.637Z,97573.61
2019-02-11T01:29:47.659Z,97544.83
2019-02-11T01:32:15.756Z,97577.14
2019-02-11T01:34:43.932Z,97567.88
2019-02-11T01:37:12.352Z,97578.33
2019-02-11T01:39:40.677Z,97592.42
2019-02-11T01:42:08.778Z,97601.99
2019-02-11T01:44:36.746Z,97611.55
2019-02-11T01:47:05.069Z,97617.02
2019-02-11T01:49:33.299Z,97615.94
2019-02-11T01:52:01.562Z,97620.48
2019-02-11T01:54:29.876Z,97640.51
2019-02-11T01:56:58.114Z,97628.33
2019-02-11T01:59:26.784Z,97634.44
2019-02-11T02:01:54.750Z,97632.33
2019-02-11T02:04:23.473Z,97628.97
2019-02-11T02:06:51.667Z,97619.03
2019-02-11T02:09:19.671Z,97628.33
2019-02-11T02:11:47.879Z,97629.60
2019-02-11T02:14:16.002Z,97639.43
2019-02-11T02:16:44.062Z,97646.00
2019-02-11T02:19:12.158Z,97634.41
2019-02-11T02:21:40.161Z,97648.61
2019-02-11T02:24:08.219Z,97637.52
2019-02-11T02:26:36.150Z,97650.19
2019-02-11T02:29:04.203Z,97642.36
2019-02-11T02:31:32.188Z,97643.33
2019-02-11T02:34:00.285Z,97647.08
2019-02-11T02:36:28.398Z,97653.55
2019-02-11T02:38:56.507Z,97657.02
2019-02-11T02:41:24.637Z,97659.56
2019-02-11T02:43:55.637Z,97665.20
2019-02-11T02:46:22.718Z,97656.00
2019-02-11T02:48:50.810Z,97667.67
2019-02-11T02:51:18.789Z,97673.31
2019-02-11T02:53:46.900Z,97691.45
2019-02-11T02:56:16.243Z,97676.48
2019-02-11T02:58:44.198Z,97691.16
2019-02-11T03:01:12.713Z,97684.08
2019-02-11T03:03:40.765Z,97709.02
2019-02-11T03:06:10.359Z,97698.45
2019-02-11T03:08:40.024Z,97723.31
2019-02-11T03:11:08.166Z,97720.81
2019-02-11T03:13:36.229Z,97715.48
2019-02-11T03:16:04.262Z,97744.73
2019-02-11T03:18:32.195Z,97741.64
2019-02-11T03:21:00.262Z,97734.59
2019-02-11T03:23:28.385Z,97749.28
2019-02-11T03:25:56.306Z,97753.69
2019-02-11T03:28:24.442Z,97758.63
2019-02-11T03:30:52.571Z,97770.27
2019-02-11T03:33:20.681Z,97793.09
2019-02-11T03:35:48.867Z,97771.73
2019-02-11T03:38:16.836Z,97779.42
2019-02-11T03:40:44.887Z,97787.95
2019-02-11T03:43:13.186Z,97782.58
2019-02-11T03:45:41.251Z,97785.76
2019-02-11T03:48:09.469Z,97790.52
2019-02-11T03:50:37.607Z,97788.08
2019-02-11T03:53:05.603Z,97803.25
2019-02-11T03:55:33.803Z,97790.43
2019-02-11T03:58:01.788Z,97802.61
2019-02-11T04:00:29.861Z,97808.59
2019-02-11T04:02:57.858Z,97812.47
2019-02-11T04:05:25.770Z,97814.19
2019-02-11T04:07:53.795Z,97823.18
2019-02-11T04:10:21.870Z,97827.43
2019-02-11T04:12:49.902Z,97828.80
2019-02-11T04:15:18.057Z,97833.27
2019-02-11T04:17:46.039Z,97833.66
2019-02-11T04:20:14.104Z,97835.45
2019-02-11T04:22:42.124Z,97834.85
2019-02-11T04:25:10.160Z,97828.36
2019-02-11T04:27:38.213Z,97836.13
2019-02-11T04:30:07.221Z,97837.55
2019-02-11T04:32:35.329Z,97837.39
2019-02-11T04:35:03.526Z,97835.07
2019-02-11T04:37:31.615Z,97850.24
2019-02-11T04:39:59.538Z,97851.23
2019-02-11T04:42:27.577Z,97862.72
2019-02-11T04:44:55.616Z,97874.41
2019-02-11T04:47:23.690Z,97876.63
2019-02-11T04:49:51.818Z,97874.59
2019-02-11T04:52:20.199Z,97884.11
2019-02-11T04:54:48.685Z,97895.50
2019-02-11T04:57:16.773Z,97890.44
2019-02-11T04:59:45.747Z,97896.96
2019-02-11T05:02:14.756Z,97897.19
2019-02-11T05:04:42.876Z,97900.88
2019-02-11T05:07:11.070Z,97902.21
2019-02-11T05:09:39.044Z,97920.72
2019-02-11T05:12:07.340Z,97922.83
2019-02-11T05:14:43.439Z,97916.99
2019-02-11T05:17:05.593Z,97930.22
2019-02-11T05:19:33.811Z,97940.20
2019-02-11T05:22:05.225Z,97931.64
2019-02-11T05:24:33.897Z,97924.11
2019-02-11T05:27:01.920Z,97935.62
2019-02-11T05:29:29.956Z,97936.38
2019-02-11T05:31:57.937Z,97936.15
2019-02-11T05:34:26.047Z,97953.35
2019-02-11T05:36:54.046Z,97953.89
2019-02-11T05:39:22.435Z,97961.14
2019-02-11T05:41:50.458Z,97970.78
2019-02-11T05:44:18.767Z,97956.28
2019-02-11T05:46:46.943Z,97972.38
2019-02-11T05:49:14.961Z,97973.79
2019-02-11T05:51:42.935Z,97980.98
2019-02-11T05:54:11.094Z,97975.14
2019-02-11T05:56:39.277Z,97981.80
2019-02-11T05:59:07.277Z,97978.42
2019-02-11T06:01:35.342Z,97982.63
2019-02-11T06:04:03.554Z,97981.27
2019-02-11T06:06:31.975Z,98001.50
2019-02-11T06:09:00.210Z,98002.62
2019-02-11T06:11:28.200Z,98021.03
2019-02-11T06:13:56.299Z,98021.47
2019-02-11T06:16:24.391Z,98019.84
2019-02-11T06:18:52.453Z,98034.80
2019-02-11T06:21:20.460Z,98035.39
2019-02-11T06:23:48.778Z,98034.50
2019-02-11T06:26:17.090Z,98038.02
2019-02-11T06:28:45.410Z,98043.49
2019-02-11T06:31:13.707Z,98042.52
2019-02-11T06:33:41.714Z,98065.50
2019-02-11T06:36:12.340Z,98074.52
2019-02-11T06:38:39.781Z,98061.69
2019-02-11T06:41:08.083Z,98074.34
2019-02-11T06:43:36.460Z,98086.19
2019-02-11T06:46:04.394Z,98092.79
2019-02-11T06:48:32.574Z,98105.60
2019-02-11T06:51:00.781Z,98109.04
2019-02-11T06:53:28.799Z,98113.38
2019-02-11T06:55:56.777Z,98117.50
2019-02-11T06:58:24.888Z,98132.87
2019-02-11T07:00:52.923Z,98145.95
2019-02-11T07:03:21.005Z,98157.36
2019-02-11T07:05:49.221Z,98158.75
2019-02-11T07:08:17.105Z,98176.28
2019-02-11T07:10:45.758Z,98175.01
2019-02-11T07:13:13.860Z,98181.81
2019-02-11T07:15:42.712Z,98210.84
2019-02-11T07:18:11.014Z,98220.64
2019-02-11T07:20:39.337Z,98217.16
2019-02-11T07:23:07.304Z,98216.44
2019-02-11T07:25:35.273Z,98226.31
2019-02-11T07:28:03.278Z,98232.34
2019-02-11T07:30:31.549Z,98227.25
2019-02-11T07:32:59.484Z,98234.50
2019-02-11T07:35:27.462Z,98239.84
2019-02-11T07:37:55.499Z,98242.84
2019-02-11T07:40:25.968Z,98248.03
2019-02-11T07:43:16.169Z,98244.98
2019-02-11T07:45:50.915Z,98257.53
2019-02-11T07:48:18.973Z,98266.64
2019-02-11T07:50:47.009Z,98263.90
2019-02-11T07:53:14.984Z,98268.61
2019-02-11T07:55:43.234Z,98268.59
2019-02-11T07:58:11.332Z,98274.48
2019-02-11T08:00:39.494Z,98283.74
2019-02-11T08:03:08.594Z,98288.30
2019-02-11T08:05:36.673Z,98293.55
2019-02-11T08:08:04.722Z,98301.34
2019-02-11T08:10:32.848Z,98321.03
2019-02-11T08:13:00.976Z,98325.89
2019-02-11T08:15:28.971Z,98327.80
2019-02-11T08:17:58.278Z,98333.09
2019-02-11T08:20:26.352Z,98332.20
2019-02-11T08:22:54.629Z,98378.92
2019-02-11T08:25:22.659Z,98337.45
2019-02-11T08:27:50.986Z,98342.60
2019-02-11T08:30:18.968Z,98355.20
2019-02-11T08:32:47.112Z,98345.70
2019-02-11T08:35:15.417Z,98345.45
2019-02-11T08:37:44.419Z,98354.37
2019-02-11T08:40:12.900Z,98362.59
2019-02-11T08:42:41.125Z,98362.30
2019-02-11T08:45:09.140Z,98362.84
2019-02-11T08:47:37.134Z,98368.09
2019-02-11T08:50:05.174Z,98383.83
2019-02-11T08:52:33.332Z,98387.16
2019-02-11T08:55:01.503Z,98392.57
2019-02-11T08:57:29.510Z,98398.83
2019-02-11T08:59:57.648Z,98396.14
2019-02-11T09:02:26.008Z,98409.03
2019-02-11T09:04:54.141Z,98399.08
2019-02-11T09:07:22.433Z,98398.58
2019-02-11T09:09:51.493Z,98423.02
2019-02-11T09:12:20.445Z,98413.20
2019-02-11T09:14:48.926Z,98423.11
2019-02-11T09:17:16.902Z,98411.42
2019-02-11T09:19:45.133Z,98410.91
2019-02-11T09:22:13.103Z,98424.09
2019-02-11T09:24:41.173Z,98429.55
2019-02-11T09:27:09.197Z,98442.63
2019-02-11T09:29:37.221Z,98448.80
2019-02-11T09:32:05.388Z,98446.02
2019-02-11T09:34:35.621Z,98461.56
2019-02-11T09:37:05.933Z,98464.20
2019-02-11T09:39:35.610Z,98467.82
2019-02-11T09:42:03.697Z,98483.50
2019-02-11T09:44:31.907Z,98479.91
2019-02-11T09:47:00.714Z,98480.94
2019-02-11T09:49:29.122Z,98482.66
2019-02-11T09:51:57.341Z,98480.32
2019-02-11T09:54:25.373Z,98487.69
2019-02-11T09:56:53.403Z,98491.83
2019-02-11T09:59:21.538Z,98501.33
2019-02-11T10:01:49.685Z,98514.66
2019-02-11T10:04:17.687Z,98496.09
2019-02-11T10:06:45.686Z,98507.12
2019-02-11T10:09:13.659Z,98518.46
2019-02-11T10:11:41.708Z,98520.22
2019-02-11T10:14:09.918Z,98520.19
2019-02-11T10:16:39.030Z,98533.69
2019-02-11T10:19:07.026Z,98541.83
2019-02-11T10:21:34.997Z,98539.65
2019-02-11T10:24:03.204Z,98549.42
2019-02-11T10:26:31.646Z,98567.13
2019-02-11T10:29:00.142Z,98564.99
2019-02-11T10:31:28.289Z,98561.25
2019-02-11T10:33:56.279Z,98585.60
2019-02-11T10:36:24.312Z,98587.25
2019-02-11T10:38:52.516Z,98587.05
2019-02-11T10:41:20.572Z,98582.67
2019-02-11T10:43:48.552Z,98589.80
2019-02-11T10:46:20.983Z,98599.72
2019-02-11T10:48:48.526Z,98604.77
2019-02-11T10:51:16.558Z,98624.31
2019-02-11T10:53:44.680Z,98611.63
2019-02-11T10:56:12.905Z,98617.77
2019-02-11T10:58:41.470Z,98623.36
2019-02-11T11:01:09.726Z,98630.41
2019-02-11T11:03:38.124Z,98646.20
2019-02-11T11:06:06.165Z,98640.34
2019-02-11T11:08:34.465Z,98657.11
2019-02-11T11:11:02.554Z,98647.11
2019-02-11T11:13:30.911Z,98652.83
2019-02-11T11:15:59.002Z,98648.30
2019-02-11T11:18:28.091Z,98652.50
2019-02-11T11:20:56.089Z,98648.46
2019-02-11T11:23:24.394Z,98655.03
2019-02-11T11:25:52.871Z,98654.47
2019-02-11T11:28:20.987Z,98654.27
2019-02-11T11:30:48.992Z,98672.38
2019-02-11T11:33:17.027Z,98679.88
2019-02-11T11:35:45.178Z,98678.41
2019-02-11T11:38:18.293Z,98669.02
2019-02-11T11:40:46.557Z,98672.95
2019-02-11T11:43:14.519Z,98680.04
2019-02-11T11:45:42.891Z,98682.63
2019-02-11T11:48:11.072Z,98686.47
2019-02-11T11:50:39.096Z,98705.76
2019-02-11T11:53:08.065Z,98692.38
2019-02-11T11:55:36.161Z,98709.06
2019-02-11T11:58:04.241Z,98709.50
2019-02-11T12:00:32.598Z,98719.31
2019-02-11T12:03:04.093Z,98712.91
2019-02-11T12:05:30.945Z,98715.11
2019-02-11T12:07:59.213Z,98708.79
2019-02-11T12:10:27.391Z,98722.70
2019-02-11T12:12:55.651Z,98722.77
2019-02-11T12:15:25.295Z,98723.56
2019-02-11T12:21:08.045Z,98729.09
2019-02-11T12:24:02.386Z,98732.33
2019-02-11T12:26:31.083Z,98731.05
2019-02-11T12:29:01.703Z,98727.58
2019-02-11T12:31:30.195Z,98716.67
2019-02-11T12:33:59.190Z,98727.13
2019-02-11T12:36:28.148Z,98733.90
2019-02-11T12:38:56.337Z,98738.05
2019-02-11T12:41:26.256Z,98727.61
2019-02-11T12:43:55.144Z,98723.44
2019-02-11T12:46:23.368Z,98732.86
2019-02-11T12:48:51.427Z,98729.34
2019-02-11T12:51:21.746Z,98728.36
2019-02-11T12:53:50.191Z,98741.36
2019-02-11T12:56:18.185Z,98750.02
2019-02-11T12:58:46.383Z,98741.73
2019-02-11T13:01:15.580Z,98765.81
2019-02-11T13:03:44.071Z,98748.28
2019-02-11T13:06:12.054Z,98751.83
2019-02-11T13:08:43.261Z,98760.17
2019-02-11T13:11:11.322Z,98758.66
2019-02-11T13:13:39.390Z,98770.35
2019-02-11T13:16:07.457Z,98759.74
2019-02-11T13:18:39.332Z,98767.48
2019-02-11T13:21:06.490Z,98756.27
2019-02-11T13:23:34.463Z,98777.31
2019-02-11T13:26:02.882Z,98781.34
2019-02-11T13:28:34.423Z,98779.03
2019-02-11T13:31:02.932Z,98774.23
2019-02-11T13:33:31.957Z,98786.34
2019-02-11T13:36:00.208Z,98796.27
2019-02-11T13:38:29.714Z,98788.55
2019-02-11T13:40:58.808Z,98796.25
2019-02-11T13:43:27.697Z,98808.27
2019-02-11T13:45:59.887Z,98787.45
2019-02-11T13:48:28.709Z,98803.53
2019-02-11T13:50:57.821Z,98799.31
2019-02-11T13:53:25.839Z,98813.95
2019-02-11T13:55:53.935Z,98817.97
2019-02-11T13:58:22.067Z,98819.71
2019-02-11T14:00:50.812Z,98822.02
2019-02-11T14:03:20.396Z,98822.75
2019-02-11T14:05:49.050Z,98826.92
2019-02-11T14:08:17.189Z,98829.39
2019-02-11T14:10:45.331Z,98835.56
2019-02-11T14:13:13.946Z,98836.83
2019-02-11T14:15:42.020Z,98850.79
2019-02-11T14:18:14.946Z,98850.84
2019-02-11T14:20:42.927Z,98858.05
2019-02-11T14:23:11.005Z,98859.41
2019-02-11T14:25:45.692Z,98859.73
2019-02-11T14:28:11.207Z,98877.58
2019-02-11T14:30:39.385Z,98883.42
2019-02-11T14:33:07.881Z,98891.18
2019-02-11T14:35:36.511Z,98884.95
2019-02-11T14:38:04.810Z,98895.86
2019-02-11T14:40:33.082Z,98912.89
2019-02-11T14:43:01.315Z,98917.53
2019-02-11T14:45:29.612Z,98899.56
2019-02-11T14:47:57.858Z,98903.74
2019-02-11T14:50:26.398Z,98901.08
2019-02-11T14:52:54.528Z,98909.59
2019-02-11T14:55:22.887Z,98906.17
2019-02-11T14:57:51.766Z,98907.84
2019-02-11T15:00:20.763Z,98920.81
2019-02-11T15:02:50.542Z,98925.08
2019-02-11T15:05:19.717Z,98923.12
2019-02-11T15:07:47.939Z,98916.42
2019-02-11T15:10:16.445Z,98927.48
2019-02-11T15:12:44.504Z,98914.65
2019-02-11T15:15:14.511Z,98912.58
2019-02-11T15:17:42.863Z,98911.24
2019-02-11T15:20:12.739Z,98928.43
2019-02-11T15:22:40.743Z,98941.32
2019-02-11T15:25:14.472Z,98955.14
2019-02-11T15:27:42.456Z,98946.64
2019-02-11T15:30:16.837Z,98953.80
2019-02-11T15:32:45.677Z,98962.86
2019-02-11T15:35:14.397Z,98958.03
2019-02-11T15:37:42.538Z,98958.84
2019-02-11T15:40:14.087Z,98972.07
2019-02-11T15:42:42.277Z,98977.39
2019-02-11T15:45:12.019Z,98977.55
2019-02-11T15:47:40.142Z,98963.46
2019-02-11T15:50:10.334Z,98970.00
2019-02-11T15:52:38.694Z,98984.41
2019-02-11T15:55:09.790Z,98997.94
2019-02-11T15:57:38.337Z,98999.48
2019-02-11T16:00:09.096Z,99019.52
2019-02-11T16:02:37.444Z,99021.84
2019-02-11T16:05:06.088Z,99025.30
2019-02-11T16:07:34.590Z,99028.97
2019-02-11T16:10:02.615Z,99038.55
2019-02-11T16:12:32.294Z,99034.33
2019-02-11T16:15:00.455Z,99045.36
2019-02-11T16:17:28.816Z,99045.40
2019-02-11T16:19:57.124Z,99042.63
2019-02-11T16:22:25.139Z,99051.94
2019-02-11T16:24:53.516Z,99054.61
2019-02-11T16:27:21.535Z,99045.98
2019-02-11T16:29:49.544Z,99058.58
2019-02-11T16:32:17.651Z,99076.08
2019-02-11T16:34:45.614Z,99063.81
2019-02-11T16:37:13.926Z,99059.27
2019-02-11T16:39:42.102Z,99076.66
2019-02-11T16:42:10.041Z,99084.33
2019-02-11T16:44:38.237Z,99091.44
2019-02-11T16:47:06.311Z,99097.42
2019-02-11T16:49:35.724Z,99101.58
2019-02-11T16:52:03.949Z,99101.17
2019-02-11T16:54:32.326Z,99122.00
2019-02-11T16:57:07.158Z,99115.22
2019-02-11T16:59:35.400Z,99109.08
2019-02-11T17:02:06.108Z,99110.67
2019-02-11T17:04:34.282Z,99113.31
2019-02-11T17:07:02.830Z,99102.14
2019-02-11T17:09:31.751Z,99099.95
2019-02-11T17:11:59.987Z,99117.37
2019-02-11T17:14:28.297Z,99120.33
2019-02-11T17:16:56.619Z,99132.25
2019-02-11T17:19:24.821Z,99137.52
2019-02-11T17:21:53.159Z,99143.25
2019-02-11T17:24:21.176Z,99138.31
2019-02-11T17:26:49.168Z,99145.25
2019-02-11T17:29:17.146Z,99151.95
2019-02-11T17:31:45.326Z,99153.17
2019-02-11T17:34:13.451Z,99165.45
2019-02-11T17:36:41.530Z,99157.31
2019-02-11T17:39:09.581Z,99157.87
2019-02-11T17:41:37.823Z,99157.35
2019-02-11T17:44:06.086Z,99162.81
2019-02-11T17:46:34.105Z,99165.33
2019-02-11T17:49:02.717Z,99159.62
2019-02-11T17:51:31.035Z,99169.68
2019-02-11T17:53:59.615Z,99172.80
2019-02-11T17:56:28.045Z,99166.01
2019-02-11T17:58:56.089Z,99164.77
2019-02-11T18:01:24.755Z,99179.75
2019-02-11T18:03:52.948Z,99188.34
2019-02-11T18:06:21.988Z,99192.56
2019-02-11T18:08:50.011Z,99180.62
2019-02-11T18:11:19.864Z,99203.39
2019-02-11T18:13:47.995Z,99217.58
2019-02-11T18:16:17.124Z,99224.69
2019-02-11T18:18:45.159Z,99230.73
2019-02-11T18:21:13.268Z,99242.23
2019-02-11T18:23:41.374Z,99241.56
2019-02-11T18:26:09.752Z,99242.00
2019-02-11T18:28:38.083Z,99244.48
2019-02-11T18:31:06.648Z,99246.30
2019-02-11T18:33:34.636Z,99246.20
2019-02-11T18:36:04.624Z,99239.30
2019-02-11T18:38:32.747Z,99260.09
2019-02-11T18:41:00.869Z,99258.59
2019-02-11T18:43:28.944Z,99259.47
2019-02-11T18:45:57.051Z,99260.13
2019-02-11T18:48:25.025Z,99279.05
2019-02-11T18:50:53.241Z,99287.26
2019-02-11T18:53:21.239Z,99291.27
2019-02-11T18:55:50.224Z,99292.66
2019-02-11T18:58:18.275Z,99302.55
2019-02-11T19:00:46.375Z,99305.45
2019-02-11T19:03:14.821Z,99302.61
2019-02-11T19:05:43.206Z,99314.28
2019-02-11T19:08:11.648Z,99317.45
2019-02-11T19:10:39.854Z,99315.86
2019-02-11T19:13:08.159Z,99326.39
2019-02-11T19:15:37.296Z,99330.45
2019-02-11T19:18:05.611Z,99329.67
2019-02-11T19:20:33.859Z,99334.53
2019-02-11T19:23:01.929Z,99334.45
2019-02-11T19:25:30.237Z,99348.49
2019-02-11T19:27:58.296Z,99345.54
2019-02-11T19:30:28.323Z,99356.05
2019-02-11T19:32:56.475Z,99361.59
2019-02-11T19:35:24.504Z,99352.39
2019-02-11T19:37:52.704Z,99355.78
2019-02-11T19:40:20.911Z,99360.85
2019-02-11T19:42:48.890Z,99362.67
2019-02-11T19:45:18.502Z,99366.22
2019-02-11T19:47:46.531Z,99369.07
2019-02-11T19:50:15.181Z,99363.09
2019-02-11T19:52:44.307Z,99381.86
2019-02-11T19:55:12.713Z,99383.87
2019-02-11T19:57:40.770Z,99401.94
2019-02-11T20:00:18.107Z,99394.78
2019-02-11T20:02:49.161Z,99403.08
2019-02-11T20:05:17.542Z,99420.52
2019-02-11T20:07:47.327Z,99427.33
2019-02-11T20:10:15.735Z,99429.25
2019-02-11T20:12:43.862Z,99434.48
2019-02-11T20:15:17.646Z,99433.98
2019-02-11T20:17:45.689Z,99434.92
2019-02-11T20:20:18.071Z,99439.80
2019-02-11T20:22:48.843Z,99447.02
2019-02-11T20:25:17.139Z,99451.38
2019-02-11T20:27:45.233Z,99458.81
2019-02-11T20:30:15.726Z,99459.48
2019-02-11T20:32:44.155Z,99469.02
2019-02-11T20:35:14.724Z,99481.29
2019-02-11T20:37:43.234Z,99482.23
2019-02-11T20:40:14.380Z,99482.59
2019-02-11T20:42:42.550Z,99489.04
2019-02-11T20:45:15.294Z,99486.05
2019-02-11T20:47:47.592Z,99489.44
2019-02-11T20:50:17.636Z,99496.91
2019-02-11T20:52:47.877Z,99502.19
2019-02-11T20:55:16.808Z,99492.10
2019-02-11T20:57:46.538Z,99503.80
2019-02-11T21:00:20.230Z,99507.02
2019-02-11T21:02:49.288Z,99508.95
2019-02-11T21:05:18.853Z,99507.57
2019-02-11T21:07:47.136Z,99506.48
2019-02-11T21:10:16.115Z,99516.75
2019-02-11T21:12:44.529Z,99521.25
2019-02-11T21:15:13.544Z,99517.95
2019-02-11T21:17:41.571Z,99514.61
2019-02-11T21:20:20.195Z,99525.98
2019-02-11T21:22:48.216Z,99528.02
2019-02-11T21:25:16.243Z,99538.41
2019-02-11T21:27:44.447Z,99543.50
2019-02-11T21:30:12.448Z,99542.88
2019-02-11T21:32:40.709Z,99547.48
2019-02-11T21:35:09.435Z,99543.66
2019-02-11T21:37:37.597Z,99531.79
2019-02-11T21:40:05.775Z,99538.13
2019-02-11T21:42:34.091Z,99540.27
2019-02-11T21:45:02.533Z,99530.23
2019-02-11T21:47:33.379Z,99529.19
2019-02-11T21:50:01.436Z,99528.33
2019-02-11T21:52:29.508Z,99519.53
2019-02-11T21:54:57.668Z,99517.96
2019-02-11T21:57:26.047Z,99515.72
2019-02-11T21:59:54.174Z,99512.72
2019-02-11T22:02:22.292Z,99507.59
2019-02-11T22:04:50.621Z,99506.05
2019-02-11T22:07:18.848Z,99521.78
2019-02-11T22:09:47.357Z,99517.28
2019-02-11T22:12:15.342Z,99511.69
2019-02-11T22:14:43.326Z,99520.42
2019-02-11T22:17:11.311Z,99521.32
2019-02-11T22:19:39.617Z,99531.45
2019-02-11T22:22:07.672Z,99532.52
2019-02-11T22:24:35.862Z,99542.20
2019-02-11T22:27:03.793Z,99555.06
2019-02-11T22:29:31.825Z,99557.61
2019-02-11T22:31:59.787Z,99554.08
2019-02-11T22:34:28.209Z,99562.53
2019-02-11T22:36:56.477Z,99561.83
2019-02-11T22:39:24.749Z,99568.19
2019-02-11T22:41:52.840Z,99569.19
2019-02-11T22:44:21.041Z,99571.65
2019-02-11T22:46:49.055Z,99578.81
2019-02-11T22:49:16.998Z,99579.50
2019-02-11T22:51:44.949Z,99599.91
2019-02-11T22:54:12.963Z,99591.78
2019-02-11T22:56:40.965Z,99601.83
2019-02-11T22:59:08.964Z,99599.66
2019-02-11T23:01:37.636Z,99615.33
2019-02-11T23:04:13.638Z,99617.23
2019-02-11T23:06:43.076Z,99617.72
2019-02-11T23:09:12.426Z,99625.56
2019-02-11T23:11:45.209Z,99621.25
2019-02-11T23:14:14.106Z,99627.49
2019-02-11T23:16:43.230Z,99637.34
2019-02-11T23:19:12.020Z,99637.17
2019-02-11T23:21:41.237Z,99643.59
2019-02-11T23:24:09.173Z,99648.31
2019-02-11T23:26:37.509Z,99645.19
2019-02-11T23:29:06.039Z,99640.89
2019-02-11T23:31:34.065Z,99643.14
2019-02-11T23:34:02.083Z,99643.02
2019-02-11T23:36:31.479Z,99641.91
2019-02-11T23:38:59.472Z,99644.77
2019-02-11T23:41:27.530Z,99648.50
2019-02-11T23:43:55.491Z,99643.53
2019-02-11T23:46:23.534Z,99639.80
2019-02-11T23:48:51.526Z,99643.72
2019-02-11T23:51:19.460Z,99661.36
2019-02-11T23:53:47.774Z,99666.02
2019-02-11T23:56:16.436Z,99667.29
2019-02-11T23:58:44.631Z,99675.89
